Yankee Freedom — WDH9223 — position and weather

sailwx.info

Track history (hours):
 
Tides and Currents Weather Stations Pressure Air Temp Water Temp Dewpoint Dewpoint Depression Visibility Wind Speed Wind Dir Waves Ship Positions

Yankee Freedom

Owner: Yankee Freedom Inc, Gloucester, MA. More information available from US FCC via Universal Licensing System and Coast Guard Vessel Documentation Center.

Last reported at 2018-Jul-23 04:11 UTC. Time now 2018-Jul-23 11:37 UTC.
Position N 42°49' W 070°12'.

Type: Ship. MMSI: 367665870.

Date/timePositionNaut miles runAvg speedWind from/ knotsBaromVisibWave heightAir tempDewpointWater temp
2018-Jul-23 04:11N 42°49' W 070°12'3 9.4
2018-Jul-23 03:52N 42°47' W 070°15'3 9.6
2018-Jul-23 03:30N 42°45' W 070°18'5 9.4
2018-Jul-23 03:00N 42°42' W 070°23'5 9.4
2018-Jul-23 02:30N 42°39' W 070°28'5 9.5
2018-Jul-23 02:00N 42°35' W 070°32'510.5
2018-Jul-23 01:30N 42°34' W 070°39'3 5.3
2018-Jul-23 01:00N 42°37' W 070°39'0 0.0
2018-Jul-23 00:30N 42°37' W 070°39'0 0.0
2018-Jul-23 00:00N 42°37' W 070°39'0 0.0
2018-Jul-22 23:30N 42°37' W 070°39'0 0.0
2018-Jul-22 23:00N 42°37' W 070°39'0 0.0
2018-Jul-22 22:30N 42°37' W 070°39'0 0.0
2018-Jul-22 22:00N 42°37' W 070°39'0 0.0
2018-Jul-22 21:30N 42°37' W 070°39'0 0.0
2018-Jul-22 21:00N 42°37' W 070°39'0 0.0
2018-Jul-22 20:30N 42°37' W 070°39'0 0.0
2018-Jul-22 20:00N 42°37' W 070°39'0 0.0
2018-Jul-22 19:30N 42°37' W 070°39'0 0.0
2018-Jul-22 19:00N 42°37' W 070°39'0 0.0
2018-Jul-22 18:30N 42°37' W 070°39'0 0.0
2018-Jul-22 18:00N 42°37' W 070°39'0 0.0
2018-Jul-22 17:30N 42°37' W 070°39'0 0.0
2018-Jul-22 17:00N 42°37' W 070°39'0 0.0
2018-Jul-22 16:30N 42°37' W 070°39'0 0.0
2018-Jul-22 16:00N 42°37' W 070°39'1 0.6
2018-Jul-22 15:01N 42°37' W 070°40'0 0.3
2018-Jul-22 14:30N 42°37' W 070°40'0 0.0
2018-Jul-22 14:00N 42°37' W 070°40'0 0.0
2018-Jul-22 13:30N 42°37' W 070°40'0 0.0
2018-Jul-22 13:00N 42°37' W 070°40'0 0.0
2018-Jul-22 12:30N 42°37' W 070°40'0 0.0
2018-Jul-22 12:01N 42°37' W 070°40'0 0.0
2018-Jul-22 11:30N 42°37' W 070°40'0 0.0
2018-Jul-22 11:00N 42°37' W 070°40'0 0.0
2018-Jul-22 10:30N 42°37' W 070°40'0 0.0
2018-Jul-22 10:00N 42°37' W 070°40'0 0.0
2018-Jul-22 09:30N 42°37' W 070°40'0 0.0
2018-Jul-22 09:00N 42°37' W 070°40'0 0.0
2018-Jul-22 08:30N 42°37' W 070°40'0 0.0
2018-Jul-22 08:00N 42°37' W 070°40'0 0.0
2018-Jul-22 07:30N 42°37' W 070°40'0 0.0
2018-Jul-22 07:01N 42°37' W 070°40'0 0.0
2018-Jul-22 06:30N 42°37' W 070°40'0 0.0
2018-Jul-22 06:00N 42°37' W 070°40'0 0.0
2018-Jul-22 05:30N 42°37' W 070°40'0 0.0
2018-Jul-22 05:00N 42°37' W 070°40'0 0.0
2018-Jul-22 04:30N 42°37' W 070°40'0 0.0
2018-Jul-22 04:00N 42°37' W 070°40'0 0.0
2018-Jul-22 03:30N 42°37' W 070°40'0 0.0
2018-Jul-22 03:00N 42°37' W 070°40'0 0.0
2018-Jul-22 02:30N 42°37' W 070°40'0 0.0
2018-Jul-22 02:00N 42°37' W 070°40'0 0.5
2018-Jul-22 01:30N 42°36' W 070°40'1 2.1
2018-Jul-22 01:00N 42°35' W 070°41'1 2.8
2018-Jul-22 00:30N 42°37' W 070°39'2 3.2
2018-Jul-22 00:01N 42°35' W 070°41'1 2.4
2018-Jul-21 23:30N 42°36' W 070°40'0 0.5
2018-Jul-21 23:00N 42°37' W 070°40'1 1.3
2018-Jul-21 22:30N 42°37' W 070°39'0 0.0
2018-Jul-21 22:00N 42°37' W 070°39'3 6.8
2018-Jul-21 21:30N 42°34' W 070°39'612.6
2018-Jul-21 21:00N 42°33' W 070°30'4 8.6
2018-Jul-21 20:30N 42°33' W 070°24'0 0.0
2018-Jul-21 20:00N 42°33' W 070°24'0 0.0
2018-Jul-21 19:30N 42°33' W 070°24'1 1.8
2018-Jul-21 19:00N 42°33' W 070°25'612.1
2018-Jul-21 18:30N 42°33' W 070°33'611.5
2018-Jul-21 18:00N 42°36' W 070°40'2 3.6
2018-Jul-21 17:30N 42°37' W 070°39'0 0.0
2018-Jul-21 17:00N 42°37' W 070°39'0 0.6
2018-Jul-21 16:31N 42°37' W 070°39'4 7.2
2018-Jul-21 16:00N 42°34' W 070°37'612.7
2018-Jul-21 15:30N 42°34' W 070°28'3 6.0
2018-Jul-21 15:01N 42°33' W 070°24'0 0.3
2018-Jul-21 14:30N 42°33' W 070°24'0 0.1
2018-Jul-21 13:30N 42°33' W 070°25'4 7.7
2018-Jul-21 13:00N 42°33' W 070°30'612.6
2018-Jul-21 12:30N 42°34' W 070°38'3 5.9
2018-Jul-21 12:00N 42°37' W 070°39'0 0.1
2018-Jul-21 11:30N 42°37' W 070°39'1 1.3
2018-Jul-21 11:01N 42°37' W 070°40'0 0.0
2018-Jul-21 10:30N 42°37' W 070°40'0 0.0
2018-Jul-21 10:00N 42°37' W 070°40'0 0.0
2018-Jul-21 09:30N 42°37' W 070°40'0 0.0
2018-Jul-21 08:59N 42°37' W 070°40'0 0.0
2018-Jul-21 08:30N 42°37' W 070°40'0 0.0
2018-Jul-21 08:00N 42°37' W 070°40'0 0.0
2018-Jul-21 07:30N 42°37' W 070°40'0 0.0
2018-Jul-21 07:00N 42°37' W 070°40'0 0.0
2018-Jul-21 06:30N 42°37' W 070°40'0 0.0
2018-Jul-21 06:00N 42°37' W 070°40'0 0.0
2018-Jul-21 05:30N 42°37' W 070°40'0 0.0
2018-Jul-21 05:00N 42°37' W 070°40'0 0.0
2018-Jul-21 04:30N 42°37' W 070°40'0 0.0
2018-Jul-21 03:59N 42°37' W 070°40'0 0.0
2018-Jul-21 03:30N 42°37' W 070°40'0 0.0
2018-Jul-21 03:00N 42°37' W 070°40'0 0.0
2018-Jul-21 02:30N 42°37' W 070°40'0 0.0
2018-Jul-21 02:00N 42°37' W 070°40'0 0.0
2018-Jul-21 01:30N 42°37' W 070°40'0 0.0
2018-Jul-21 01:00N 42°37' W 070°40'0 0.0
2018-Jul-21 00:30N 42°37' W 070°40'0 0.0
2018-Jul-21 00:00N 42°37' W 070°40'0 0.0
2018-Jul-20 23:30N 42°37' W 070°40'0 0.0
2018-Jul-20 23:00N 42°37' W 070°40'0 0.0
2018-Jul-20 22:30N 42°37' W 070°40'0 0.0
2018-Jul-20 22:00N 42°37' W 070°40'0 0.0
2018-Jul-20 21:30N 42°37' W 070°40'0 0.0
2018-Jul-20 21:00N 42°37' W 070°40'0 0.0
2018-Jul-20 20:30N 42°37' W 070°40'0 0.0
2018-Jul-20 20:00N 42°37' W 070°40'0 0.0
2018-Jul-20 19:30N 42°37' W 070°40'0 0.0
2018-Jul-20 19:00N 42°37' W 070°40'0 0.0
2018-Jul-20 18:30N 42°37' W 070°40'0 0.0
2018-Jul-20 18:00N 42°37' W 070°40'0 0.0
2018-Jul-20 17:30N 42°37' W 070°40'0 0.0
2018-Jul-20 17:00N 42°37' W 070°40'0 0.0
2018-Jul-20 16:30N 42°37' W 070°40'0 0.0
2018-Jul-20 16:00N 42°37' W 070°40'0 0.0
2018-Jul-20 15:30N 42°37' W 070°40'0 0.0
2018-Jul-20 15:00N 42°37' W 070°40'0 0.0
2018-Jul-20 14:30N 42°37' W 070°40'0 0.0
2018-Jul-20 14:00N 42°37' W 070°40'0 0.0
2018-Jul-20 13:30N 42°37' W 070°40'0 0.0
2018-Jul-20 13:00N 42°37' W 070°40'0 0.0
2018-Jul-20 12:30N 42°37' W 070°40'0 0.0
2018-Jul-20 12:00N 42°37' W 070°40'0 0.0
2018-Jul-20 11:30N 42°37' W 070°40'0 0.0
2018-Jul-20 11:00N 42°37' W 070°40'0 0.0
2018-Jul-20 10:30N 42°37' W 070°40'0 0.0
2018-Jul-20 10:00N 42°37' W 070°40'0 0.0
2018-Jul-20 09:30N 42°37' W 070°40'0 0.0
2018-Jul-20 09:00N 42°37' W 070°40'0 0.0
2018-Jul-20 08:30N 42°37' W 070°40'0 0.0
2018-Jul-20 08:00N 42°37' W 070°40'0 0.0
2018-Jul-20 07:30N 42°37' W 070°40'0 0.0
2018-Jul-20 07:00N 42°37' W 070°40'0 0.0
2018-Jul-20 06:30N 42°37' W 070°40'0 0.0
2018-Jul-20 06:00N 42°37' W 070°40'0 0.0
2018-Jul-20 05:30N 42°37' W 070°40'0 0.0
2018-Jul-20 05:00N 42°37' W 070°40'0 0.0
2018-Jul-20 04:30N 42°37' W 070°40'0 0.0
2018-Jul-20 04:00N 42°37' W 070°40'0 0.0
2018-Jul-20 03:30N 42°37' W 070°40'0 0.0
2018-Jul-20 03:00N 42°37' W 070°40'0 0.0
2018-Jul-20 02:30N 42°37' W 070°40'0 0.0
2018-Jul-20 02:00N 42°37' W 070°40'0 0.0
2018-Jul-20 01:30N 42°37' W 070°40'0 0.0
2018-Jul-20 01:00N 42°37' W 070°40'0 0.0
2018-Jul-20 00:30N 42°37' W 070°40'0 0.0
2018-Jul-20 00:00N 42°37' W 070°40'0 0.0
2018-Jul-19 23:30N 42°37' W 070°40'0 0.0
2018-Jul-19 23:00N 42°37' W 070°40'0 0.0
2018-Jul-19 22:30N 42°37' W 070°40'0 0.0
2018-Jul-19 22:00N 42°37' W 070°40'0 0.0
2018-Jul-19 21:30N 42°37' W 070°40'0 0.0
2018-Jul-19 21:00N 42°37' W 070°40'0 0.0
2018-Jul-19 20:30N 42°37' W 070°40'0 0.0
2018-Jul-19 20:00N 42°37' W 070°40'0 0.0
2018-Jul-19 19:30N 42°37' W 070°40'0 0.0
2018-Jul-19 19:00N 42°37' W 070°40'0 0.0
2018-Jul-19 18:30N 42°37' W 070°40'0 0.0
2018-Jul-19 18:00N 42°37' W 070°40'0 0.0
2018-Jul-19 17:30N 42°37' W 070°40'0 0.0
2018-Jul-19 17:00N 42°37' W 070°40'0 0.0
2018-Jul-19 16:30N 42°37' W 070°40'0 0.0
2018-Jul-19 16:00N 42°37' W 070°40'0 0.0
2018-Jul-19 15:30N 42°37' W 070°40'0 0.0
2018-Jul-19 15:00N 42°37' W 070°40'0 0.0
2018-Jul-19 14:00N 42°37' W 070°40'0 0.0
2018-Jul-19 13:30N 42°37' W 070°40'0 0.0
2018-Jul-19 13:00N 42°37' W 070°40'0 0.0
2018-Jul-19 12:30N 42°37' W 070°40'0 0.0
2018-Jul-19 12:00N 42°37' W 070°40'0 0.0
2018-Jul-19 11:30N 42°37' W 070°40'0 0.0
2018-Jul-19 11:00N 42°37' W 070°40'0 0.0
2018-Jul-19 10:30N 42°37' W 070°40'0 0.0
2018-Jul-19 10:00N 42°37' W 070°40'0 0.0
2018-Jul-19 09:30N 42°37' W 070°40'0 0.0
2018-Jul-19 09:00N 42°37' W 070°40'0 0.0
2018-Jul-19 08:30N 42°37' W 070°40'0 0.0
2018-Jul-19 08:00N 42°37' W 070°40'0 0.0
2018-Jul-19 07:30N 42°37' W 070°40'0 0.0
2018-Jul-19 07:00N 42°37' W 070°40'0 0.0
2018-Jul-19 06:30N 42°37' W 070°40'0 0.0
2018-Jul-19 06:00N 42°37' W 070°40'0 0.0
2018-Jul-19 05:30N 42°37' W 070°40'0 0.0
2018-Jul-19 05:00N 42°37' W 070°40'0 0.0
2018-Jul-19 04:30N 42°37' W 070°40'0 0.0
2018-Jul-19 04:00N 42°37' W 070°40'0 0.0
2018-Jul-19 03:30N 42°37' W 070°40'0 0.0
2018-Jul-19 03:00N 42°37' W 070°40'0 0.0
2018-Jul-19 02:30N 42°37' W 070°40'0 0.0
2018-Jul-19 02:00N 42°37' W 070°40'0 0.0
2018-Jul-19 01:30N 42°37' W 070°40'0 0.0
2018-Jul-19 01:00N 42°37' W 070°40'0 0.0
2018-Jul-19 00:30N 42°37' W 070°40'0 0.0
2018-Jul-19 00:00N 42°37' W 070°40'0 0.0
2018-Jul-18 23:30N 42°37' W 070°40'0 0.0
2018-Jul-18 23:00N 42°37' W 070°40'0 0.0
2018-Jul-18 22:30N 42°37' W 070°40'0 0.0
2018-Jul-18 22:00N 42°37' W 070°40'0 0.0
2018-Jul-18 21:30N 42°37' W 070°40'0 0.0
2018-Jul-18 21:00N 42°37' W 070°40'0 0.0
2018-Jul-18 20:30N 42°37' W 070°40'0 0.0
2018-Jul-18 20:00N 42°37' W 070°40'0 0.0
2018-Jul-18 19:30N 42°37' W 070°40'0 0.0
2018-Jul-18 19:00N 42°37' W 070°40'0 0.0
2018-Jul-18 18:30N 42°37' W 070°40'0 0.0
2018-Jul-18 18:00N 42°37' W 070°40'0 0.0
2018-Jul-18 17:30N 42°37' W 070°40'0 0.0
2018-Jul-18 17:00N 42°37' W 070°40'0 0.0
2018-Jul-18 16:30N 42°37' W 070°40'0 0.0
2018-Jul-18 15:57N 42°37' W 070°40'0 0.0
2018-Jul-18 15:30N 42°37' W 070°40'0 0.0
2018-Jul-18 15:00N 42°37' W 070°40'1 1.2
2018-Jul-18 14:30N 42°37' W 070°39'0 0.2
2018-Jul-18 13:30N 42°37' W 070°39'0 0.6
2018-Jul-18 13:00N 42°37' W 070°39'0 0.0
2018-Jul-18 12:30N 42°37' W 070°39'0 0.0
2018-Jul-18 12:00N 42°37' W 070°39'0 0.0
2018-Jul-18 11:30N 42°37' W 070°39'0 0.0
2018-Jul-18 10:30N 42°37' W 070°39'0 0.0
2018-Jul-18 10:00N 42°37' W 070°39'0 0.0
2018-Jul-18 09:30N 42°37' W 070°39'0 0.0
2018-Jul-18 09:00N 42°37' W 070°39'0 0.0
2018-Jul-18 08:30N 42°37' W 070°39'0 0.0
2018-Jul-18 08:00N 42°37' W 070°39'0 0.0
2018-Jul-18 07:30N 42°37' W 070°39'0 0.0
2018-Jul-18 07:00N 42°37' W 070°39'0 0.0
2018-Jul-18 06:30N 42°37' W 070°39'0 0.0
2018-Jul-18 06:00N 42°37' W 070°39'0 0.0
2018-Jul-18 05:30N 42°37' W 070°39'0 0.0
2018-Jul-18 05:00N 42°37' W 070°39'0 0.0
2018-Jul-18 04:30N 42°37' W 070°39'0 0.0
2018-Jul-18 04:00N 42°37' W 070°39'0 0.0
2018-Jul-18 03:30N 42°37' W 070°39'0 0.0
2018-Jul-18 03:00N 42°37' W 070°39'0 0.0
2018-Jul-18 02:30N 42°37' W 070°39'0 0.0
2018-Jul-18 02:00N 42°37' W 070°39'0 0.0
2018-Jul-18 01:30N 42°37' W 070°39'0 0.0
2018-Jul-18 01:00N 42°37' W 070°39'0 0.0
2018-Jul-18 00:30N 42°37' W 070°39'0 0.0
2018-Jul-18 00:00N 42°37' W 070°39'0 0.0
2018-Jul-17 23:30N 42°37' W 070°39'0 0.4
2018-Jul-17 23:00N 42°37' W 070°39'3 6.1
2018-Jul-17 22:30N 42°34' W 070°37'612.2
2018-Jul-17 22:00N 42°36' W 070°29'612.3
2018-Jul-17 21:30N 42°37' W 070°21'45 3.0
2018-Jul-17 06:40N 42°48' W 069°22'511.3
2018-Jul-17 06:12N 42°47' W 069°29'311.6
2018-Jul-17 05:55N 42°46' W 069°34'611.5
2018-Jul-17 05:25N 42°45' W 069°41'711.1
2018-Jul-17 04:49N 42°43' W 069°50'511.1
2018-Jul-17 04:25N 42°42' W 069°56'511.1
2018-Jul-17 04:00N 42°41' W 070°02'511.0
2018-Jul-17 03:30N 42°40' W 070°09'510.7
2018-Jul-17 03:00N 42°38' W 070°16'611.1
2018-Jul-17 02:30N 42°37' W 070°24'611.3
2018-Jul-17 02:00N 42°36' W 070°31'510.8
2018-Jul-17 01:30N 42°34' W 070°38'3 5.5
2018-Jul-17 01:00N 42°37' W 070°39'0 0.0
2018-Jul-17 00:30N 42°37' W 070°39'0 0.0
2018-Jul-16 23:30N 42°37' W 070°39'0 0.0
2018-Jul-16 23:00N 42°37' W 070°39'3 5.3
2018-Jul-16 22:30N 42°35' W 070°41'611.5
2018-Jul-16 22:00N 42°30' W 070°36'612.5
2018-Jul-16 21:30N 42°26' W 070°31'22 1.3
2018-Jul-16 04:41N 42°11' W 070°08'211.2
2018-Jul-16 04:31N 42°12' W 070°10'611.0
2018-Jul-16 04:01N 42°16' W 070°16'610.4
2018-Jul-16 03:25N 42°21' W 070°21'511.0
2018-Jul-16 03:00N 42°24' W 070°26'611.3
2018-Jul-16 02:31N 42°27' W 070°31'611.1
2018-Jul-16 02:01N 42°31' W 070°37'510.0
2018-Jul-16 01:30N 42°35' W 070°41'2 4.0
2018-Jul-16 01:01N 42°37' W 070°39'0 0.3
2018-Jul-16 00:31N 42°37' W 070°39'0 0.0
2018-Jul-16 00:01N 42°37' W 070°39'0 0.0
2018-Jul-15 23:30N 42°37' W 070°39'0 0.0
2018-Jul-15 23:01N 42°37' W 070°39'0 0.3
2018-Jul-15 22:30N 42°37' W 070°39'0 0.3
2018-Jul-15 22:01N 42°37' W 070°39'1 3.0
2018-Jul-15 21:31N 42°36' W 070°40'4 8.6
2018-Jul-15 21:00N 42°34' W 070°35'2 4.7
2018-Jul-15 20:31N 42°34' W 070°32'0 0.4
2018-Jul-15 20:00N 42°34' W 070°32'0 1.0
2018-Jul-15 19:30N 42°34' W 070°32'0 0.3
2018-Jul-15 19:01N 42°34' W 070°32'0 0.2
2018-Jul-15 18:30N 42°34' W 070°32'4 7.4
2018-Jul-15 18:00N 42°34' W 070°37'3 6.0
2018-Jul-15 17:31N 42°37' W 070°39'0 0.0
2018-Jul-15 17:01N 42°37' W 070°39'3 5.0
2018-Jul-15 16:30N 42°34' W 070°39'612.5
2018-Jul-15 16:00N 42°34' W 070°31'510.2
2018-Jul-15 15:30N 42°33' W 070°24'0 0.5
2018-Jul-15 15:00N 42°33' W 070°24'0 0.1
2018-Jul-15 14:30N 42°33' W 070°24'1 2.3
2018-Jul-15 14:00N 42°32' W 070°25'0 0.2
2018-Jul-15 13:30N 42°32' W 070°25'4 7.1
2018-Jul-15 13:00N 42°33' W 070°30'611.6
2018-Jul-15 12:30N 42°34' W 070°38'3 5.8
2018-Jul-15 12:00N 42°37' W 070°39'0 0.0
2018-Jul-15 11:30N 42°37' W 070°39'1 1.3
2018-Jul-15 11:00N 42°37' W 070°40'0 0.0
2018-Jul-15 10:30N 42°37' W 070°40'0 0.0
2018-Jul-15 10:00N 42°37' W 070°40'0 0.0
2018-Jul-15 09:30N 42°37' W 070°40'0 0.0
2018-Jul-15 09:00N 42°37' W 070°40'0 0.0
2018-Jul-15 08:30N 42°37' W 070°40'0 0.0
2018-Jul-15 08:00N 42°37' W 070°40'0 0.0
2018-Jul-15 07:30N 42°37' W 070°40'0 0.0
2018-Jul-15 07:00N 42°37' W 070°40'0 0.0
2018-Jul-15 06:30N 42°37' W 070°40'0 0.0
2018-Jul-15 06:00N 42°37' W 070°40'0 0.0
2018-Jul-15 05:30N 42°37' W 070°40'0 0.0
2018-Jul-15 05:00N 42°37' W 070°40'0 0.0
2018-Jul-15 04:30N 42°37' W 070°40'0 0.0
2018-Jul-15 04:00N 42°37' W 070°40'0 0.0
2018-Jul-15 03:30N 42°37' W 070°40'0 0.0
2018-Jul-15 03:00N 42°37' W 070°40'0 0.0
2018-Jul-15 02:30N 42°37' W 070°40'0 0.0
2018-Jul-15 02:00N 42°37' W 070°40'0 0.0
2018-Jul-15 01:30N 42°37' W 070°40'0 0.0
2018-Jul-15 01:00N 42°37' W 070°40'0 0.0
2018-Jul-15 00:30N 42°37' W 070°40'0 0.0
2018-Jul-15 00:00N 42°37' W 070°40'0 0.0
2018-Jul-14 23:30N 42°37' W 070°40'0 0.0
2018-Jul-14 23:00N 42°37' W 070°40'0 0.3
2018-Jul-14 22:30N 42°37' W 070°40'1 1.1
2018-Jul-14 21:58N 42°37' W 070°39'3 6.2
2018-Jul-14 21:30N 42°34' W 070°38'612.0
2018-Jul-14 21:00N 42°34' W 070°30'4 7.8
2018-Jul-14 20:30N 42°33' W 070°25'0 0.0
2018-Jul-14 20:00N 42°33' W 070°25'0 0.0
2018-Jul-14 19:30N 42°33' W 070°25'0 0.2
2018-Jul-14 19:00N 42°33' W 070°25'4 7.4
2018-Jul-14 18:30N 42°33' W 070°30'612.4
2018-Jul-14 18:00N 42°34' W 070°38'3 6.0
2018-Jul-14 17:30N 42°37' W 070°39'0 0.0
2018-Jul-14 17:00N 42°37' W 070°39'0 0.0
2018-Jul-14 16:30N 42°37' W 070°39'3 5.7
2018-Jul-14 16:00N 42°34' W 070°38'612.5
2018-Jul-14 15:30N 42°33' W 070°30'4 7.1
2018-Jul-14 15:00N 42°33' W 070°25'0 0.0
2018-Jul-14 14:00N 42°33' W 070°25'0 0.0
2018-Jul-14 13:30N 42°33' W 070°25'4 8.5
2018-Jul-14 13:00N 42°33' W 070°31'612.0
2018-Jul-14 12:30N 42°34' W 070°39'3 5.5
2018-Jul-14 12:00N 42°37' W 070°39'0 0.0
2018-Jul-14 11:30N 42°37' W 070°39'1 1.3
2018-Jul-14 11:00N 42°37' W 070°40'0 0.0
2018-Jul-14 10:30N 42°37' W 070°40'0 0.0
2018-Jul-14 10:00N 42°37' W 070°40'0 0.0
2018-Jul-14 09:30N 42°37' W 070°40'0 0.0
2018-Jul-14 09:00N 42°37' W 070°40'0 0.0
2018-Jul-14 08:30N 42°37' W 070°40'0 0.0
2018-Jul-14 07:59N 42°37' W 070°40'0 0.0
2018-Jul-14 07:30N 42°37' W 070°40'0 0.0
2018-Jul-14 07:00N 42°37' W 070°40'0 0.0
2018-Jul-14 06:30N 42°37' W 070°40'0 0.0
2018-Jul-14 06:00N 42°37' W 070°40'0 0.0
2018-Jul-14 05:30N 42°37' W 070°40'0 0.0
2018-Jul-14 05:00N 42°37' W 070°40'0 0.0
2018-Jul-14 04:30N 42°37' W 070°40'0 0.0
2018-Jul-14 04:00N 42°37' W 070°40'0 0.0
2018-Jul-14 03:30N 42°37' W 070°40'0 0.0
2018-Jul-14 03:00N 42°37' W 070°40'0 0.0
2018-Jul-14 02:30N 42°37' W 070°40'0 0.0
2018-Jul-14 02:00N 42°37' W 070°40'0 0.0
2018-Jul-14 01:30N 42°37' W 070°40'0 0.0
2018-Jul-14 01:00N 42°37' W 070°40'0 0.0
2018-Jul-14 00:30N 42°37' W 070°40'0 0.0
2018-Jul-14 00:00N 42°37' W 070°40'0 0.0
2018-Jul-13 23:30N 42°37' W 070°40'0 0.0
2018-Jul-13 23:00N 42°37' W 070°40'0 0.0
2018-Jul-13 22:30N 42°37' W 070°40'1 1.3
2018-Jul-13 22:00N 42°37' W 070°39'3 6.0
2018-Jul-13 21:30N 42°34' W 070°40'510.9
2018-Jul-13 21:00N 42°31' W 070°33'5 9.0
2018-Jul-13 20:30N 42°29' W 070°28'0 0.0
2018-Jul-13 20:00N 42°29' W 070°28'0 0.3
2018-Jul-13 19:30N 42°29' W 070°28'0 0.5
2018-Jul-13 19:00N 42°30' W 070°28'2 4.7
2018-Jul-13 18:30N 42°30' W 070°31'611.9
2018-Jul-13 18:00N 42°34' W 070°38'4 7.0
2018-Jul-13 17:30N 42°37' W 070°39'0 0.0
2018-Jul-13 17:00N 42°37' W 070°39'1 1.3
2018-Jul-13 16:30N 42°37' W 070°40'0 0.3
2018-Jul-13 16:00N 42°37' W 070°40'0 0.0
2018-Jul-13 15:30N 42°37' W 070°40'0 0.0
2018-Jul-13 15:00N 42°37' W 070°40'0 0.0
2018-Jul-13 14:00N 42°37' W 070°40'0 0.0
2018-Jul-13 13:30N 42°37' W 070°40'0 0.0
2018-Jul-13 13:00N 42°37' W 070°40'0 0.0
2018-Jul-13 12:30N 42°37' W 070°40'0 0.0
2018-Jul-13 12:00N 42°37' W 070°40'0 0.0
2018-Jul-13 11:30N 42°37' W 070°40'0 0.0
2018-Jul-13 11:00N 42°37' W 070°40'0 0.0
2018-Jul-13 10:30N 42°37' W 070°40'0 0.0
2018-Jul-13 10:00N 42°37' W 070°40'0 0.0
2018-Jul-13 09:30N 42°37' W 070°40'0 0.0
2018-Jul-13 09:00N 42°37' W 070°40'0 0.0
2018-Jul-13 08:30N 42°37' W 070°40'0 0.0
2018-Jul-13 08:00N 42°37' W 070°40'0 0.0
2018-Jul-13 07:30N 42°37' W 070°40'0 0.0
2018-Jul-13 07:00N 42°37' W 070°40'0 0.0
2018-Jul-13 06:30N 42°37' W 070°40'0 0.0
2018-Jul-13 06:00N 42°37' W 070°40'0 0.0
2018-Jul-13 05:30N 42°37' W 070°40'0 0.0
2018-Jul-13 05:00N 42°37' W 070°40'0 0.0
2018-Jul-13 04:30N 42°37' W 070°40'  
Track history (hours):
 
Tides and Currents Weather Stations Pressure Air Temp Water Temp Dewpoint Dewpoint Depression Visibility Wind Speed Wind Dir Waves Ship Positions

Yankee Freedom

Owner: Yankee Freedom Inc, Gloucester, MA. More information available from US FCC via Universal Licensing System and Coast Guard Vessel Documentation Center.

Last reported at 2018-Jul-23 04:11 UTC. Time now 2018-Jul-23 11:37 UTC.
Position N 42°49' W 070°12'.

Type: Ship. MMSI: 367665870.

Date/timePositionNaut miles runAvg speedWind from/ knotsBaromVisibWave heightAir tempDewpointWater temp
2018-Jul-23 04:11N 42°49' W 070°12'3 9.4
2018-Jul-23 03:52N 42°47' W 070°15'3 9.6
2018-Jul-23 03:30N 42°45' W 070°18'5 9.4
2018-Jul-23 03:00N 42°42' W 070°23'5 9.4
2018-Jul-23 02:30N 42°39' W 070°28'5 9.5
2018-Jul-23 02:00N 42°35' W 070°32'510.5
2018-Jul-23 01:30N 42°34' W 070°39'3 5.3
2018-Jul-23 01:00N 42°37' W 070°39'0 0.0
2018-Jul-23 00:30N 42°37' W 070°39'0 0.0
2018-Jul-23 00:00N 42°37' W 070°39'0 0.0
2018-Jul-22 23:30N 42°37' W 070°39'0 0.0
2018-Jul-22 23:00N 42°37' W 070°39'0 0.0
2018-Jul-22 22:30N 42°37' W 070°39'0 0.0
2018-Jul-22 22:00N 42°37' W 070°39'0 0.0
2018-Jul-22 21:30N 42°37' W 070°39'0 0.0
2018-Jul-22 21:00N 42°37' W 070°39'0 0.0
2018-Jul-22 20:30N 42°37' W 070°39'0 0.0
2018-Jul-22 20:00N 42°37' W 070°39'0 0.0
2018-Jul-22 19:30N 42°37' W 070°39'0 0.0
2018-Jul-22 19:00N 42°37' W 070°39'0 0.0
2018-Jul-22 18:30N 42°37' W 070°39'0 0.0
2018-Jul-22 18:00N 42°37' W 070°39'0 0.0
2018-Jul-22 17:30N 42°37' W 070°39'0 0.0
2018-Jul-22 17:00N 42°37' W 070°39'0 0.0
2018-Jul-22 16:30N 42°37' W 070°39'0 0.0
2018-Jul-22 16:00N 42°37' W 070°39'1 0.6
2018-Jul-22 15:01N 42°37' W 070°40'0 0.3
2018-Jul-22 14:30N 42°37' W 070°40'0 0.0
2018-Jul-22 14:00N 42°37' W 070°40'0 0.0
2018-Jul-22 13:30N 42°37' W 070°40'0 0.0
2018-Jul-22 13:00N 42°37' W 070°40'0 0.0
2018-Jul-22 12:30N 42°37' W 070°40'0 0.0
2018-Jul-22 12:01N 42°37' W 070°40'0 0.0
2018-Jul-22 11:30N 42°37' W 070°40'0 0.0
2018-Jul-22 11:00N 42°37' W 070°40'0 0.0
2018-Jul-22 10:30N 42°37' W 070°40'0 0.0
2018-Jul-22 10:00N 42°37' W 070°40'0 0.0
2018-Jul-22 09:30N 42°37' W 070°40'0 0.0
2018-Jul-22 09:00N 42°37' W 070°40'0 0.0
2018-Jul-22 08:30N 42°37' W 070°40'0 0.0
2018-Jul-22 08:00N 42°37' W 070°40'0 0.0
2018-Jul-22 07:30N 42°37' W 070°40'0 0.0
2018-Jul-22 07:01N 42°37' W 070°40'0 0.0
2018-Jul-22 06:30N 42°37' W 070°40'0 0.0
2018-Jul-22 06:00N 42°37' W 070°40'0 0.0
2018-Jul-22 05:30N 42°37' W 070°40'0 0.0
2018-Jul-22 05:00N 42°37' W 070°40'0 0.0
2018-Jul-22 04:30N 42°37' W 070°40'0 0.0
2018-Jul-22 04:00N 42°37' W 070°40'0 0.0
2018-Jul-22 03:30N 42°37' W 070°40'0 0.0
2018-Jul-22 03:00N 42°37' W 070°40'0 0.0
2018-Jul-22 02:30N 42°37' W 070°40'0 0.0
2018-Jul-22 02:00N 42°37' W 070°40'0 0.5
2018-Jul-22 01:30N 42°36' W 070°40'1 2.1
2018-Jul-22 01:00N 42°35' W 070°41'1 2.8
2018-Jul-22 00:30N 42°37' W 070°39'2 3.2
2018-Jul-22 00:01N 42°35' W 070°41'1 2.4
2018-Jul-21 23:30N 42°36' W 070°40'0 0.5
2018-Jul-21 23:00N 42°37' W 070°40'1 1.3
2018-Jul-21 22:30N 42°37' W 070°39'0 0.0
2018-Jul-21 22:00N 42°37' W 070°39'3 6.8
2018-Jul-21 21:30N 42°34' W 070°39'612.6
2018-Jul-21 21:00N 42°33' W 070°30'4 8.6
2018-Jul-21 20:30N 42°33' W 070°24'0 0.0
2018-Jul-21 20:00N 42°33' W 070°24'0 0.0
2018-Jul-21 19:30N 42°33' W 070°24'1 1.8
2018-Jul-21 19:00N 42°33' W 070°25'612.1
2018-Jul-21 18:30N 42°33' W 070°33'611.5
2018-Jul-21 18:00N 42°36' W 070°40'2 3.6
2018-Jul-21 17:30N 42°37' W 070°39'0 0.0
2018-Jul-21 17:00N 42°37' W 070°39'0 0.6
2018-Jul-21 16:31N 42°37' W 070°39'4 7.2
2018-Jul-21 16:00N 42°34' W 070°37'612.7
2018-Jul-21 15:30N 42°34' W 070°28'3 6.0
2018-Jul-21 15:01N 42°33' W 070°24'0 0.3
2018-Jul-21 14:30N 42°33' W 070°24'0 0.1
2018-Jul-21 13:30N 42°33' W 070°25'4 7.7
2018-Jul-21 13:00N 42°33' W 070°30'612.6
2018-Jul-21 12:30N 42°34' W 070°38'3 5.9
2018-Jul-21 12:00N 42°37' W 070°39'0 0.1
2018-Jul-21 11:30N 42°37' W 070°39'1 1.3
2018-Jul-21 11:01N 42°37' W 070°40'0 0.0
2018-Jul-21 10:30N 42°37' W 070°40'0 0.0
2018-Jul-21 10:00N 42°37' W 070°40'0 0.0
2018-Jul-21 09:30N 42°37' W 070°40'0 0.0
2018-Jul-21 08:59N 42°37' W 070°40'0 0.0
2018-Jul-21 08:30N 42°37' W 070°40'0 0.0
2018-Jul-21 08:00N 42°37' W 070°40'0 0.0
2018-Jul-21 07:30N 42°37' W 070°40'0 0.0
2018-Jul-21 07:00N 42°37' W 070°40'0 0.0
2018-Jul-21 06:30N 42°37' W 070°40'0 0.0
2018-Jul-21 06:00N 42°37' W 070°40'0 0.0
2018-Jul-21 05:30N 42°37' W 070°40'0 0.0
2018-Jul-21 05:00N 42°37' W 070°40'0 0.0
2018-Jul-21 04:30N 42°37' W 070°40'0 0.0
2018-Jul-21 03:59N 42°37' W 070°40'0 0.0
2018-Jul-21 03:30N 42°37' W 070°40'0 0.0
2018-Jul-21 03:00N 42°37' W 070°40'0 0.0
2018-Jul-21 02:30N 42°37' W 070°40'0 0.0
2018-Jul-21 02:00N 42°37' W 070°40'0 0.0
2018-Jul-21 01:30N 42°37' W 070°40'0 0.0
2018-Jul-21 01:00N 42°37' W 070°40'0 0.0
2018-Jul-21 00:30N 42°37' W 070°40'0 0.0
2018-Jul-21 00:00N 42°37' W 070°40'0 0.0
2018-Jul-20 23:30N 42°37' W 070°40'0 0.0
2018-Jul-20 23:00N 42°37' W 070°40'0 0.0
2018-Jul-20 22:30N 42°37' W 070°40'0 0.0
2018-Jul-20 22:00N 42°37' W 070°40'0 0.0
2018-Jul-20 21:30N 42°37' W 070°40'0 0.0
2018-Jul-20 21:00N 42°37' W 070°40'0 0.0
2018-Jul-20 20:30N 42°37' W 070°40'0 0.0
2018-Jul-20 20:00N 42°37' W 070°40'0 0.0
2018-Jul-20 19:30N 42°37' W 070°40'0 0.0
2018-Jul-20 19:00N 42°37' W 070°40'0 0.0
2018-Jul-20 18:30N 42°37' W 070°40'0 0.0
2018-Jul-20 18:00N 42°37' W 070°40'0 0.0
2018-Jul-20 17:30N 42°37' W 070°40'0 0.0
2018-Jul-20 17:00N 42°37' W 070°40'0 0.0
2018-Jul-20 16:30N 42°37' W 070°40'0 0.0
2018-Jul-20 16:00N 42°37' W 070°40'0 0.0
2018-Jul-20 15:30N 42°37' W 070°40'0 0.0
2018-Jul-20 15:00N 42°37' W 070°40'0 0.0
2018-Jul-20 14:30N 42°37' W 070°40'0 0.0
2018-Jul-20 14:00N 42°37' W 070°40'0 0.0
2018-Jul-20 13:30N 42°37' W 070°40'0 0.0
2018-Jul-20 13:00N 42°37' W 070°40'0 0.0
2018-Jul-20 12:30N 42°37' W 070°40'0 0.0
2018-Jul-20 12:00N 42°37' W 070°40'0 0.0
2018-Jul-20 11:30N 42°37' W 070°40'0 0.0
2018-Jul-20 11:00N 42°37' W 070°40'0 0.0
2018-Jul-20 10:30N 42°37' W 070°40'0 0.0
2018-Jul-20 10:00N 42°37' W 070°40'0 0.0
2018-Jul-20 09:30N 42°37' W 070°40'0 0.0
2018-Jul-20 09:00N 42°37' W 070°40'0 0.0
2018-Jul-20 08:30N 42°37' W 070°40'0 0.0
2018-Jul-20 08:00N 42°37' W 070°40'0 0.0
2018-Jul-20 07:30N 42°37' W 070°40'0 0.0
2018-Jul-20 07:00N 42°37' W 070°40'0 0.0
2018-Jul-20 06:30N 42°37' W 070°40'0 0.0
2018-Jul-20 06:00N 42°37' W 070°40'0 0.0
2018-Jul-20 05:30N 42°37' W 070°40'0 0.0
2018-Jul-20 05:00N 42°37' W 070°40'0 0.0
2018-Jul-20 04:30N 42°37' W 070°40'0 0.0
2018-Jul-20 04:00N 42°37' W 070°40'0 0.0
2018-Jul-20 03:30N 42°37' W 070°40'0 0.0
2018-Jul-20 03:00N 42°37' W 070°40'0 0.0
2018-Jul-20 02:30N 42°37' W 070°40'0 0.0
2018-Jul-20 02:00N 42°37' W 070°40'0 0.0
2018-Jul-20 01:30N 42°37' W 070°40'0 0.0
2018-Jul-20 01:00N 42°37' W 070°40'0 0.0
2018-Jul-20 00:30N 42°37' W 070°40'0 0.0
2018-Jul-20 00:00N 42°37' W 070°40'0 0.0
2018-Jul-19 23:30N 42°37' W 070°40'0 0.0
2018-Jul-19 23:00N 42°37' W 070°40'0 0.0
2018-Jul-19 22:30N 42°37' W 070°40'0 0.0
2018-Jul-19 22:00N 42°37' W 070°40'0 0.0
2018-Jul-19 21:30N 42°37' W 070°40'0 0.0
2018-Jul-19 21:00N 42°37' W 070°40'0 0.0
2018-Jul-19 20:30N 42°37' W 070°40'0 0.0
2018-Jul-19 20:00N 42°37' W 070°40'0 0.0
2018-Jul-19 19:30N 42°37' W 070°40'0 0.0
2018-Jul-19 19:00N 42°37' W 070°40'0 0.0
2018-Jul-19 18:30N 42°37' W 070°40'0 0.0
2018-Jul-19 18:00N 42°37' W 070°40'0 0.0
2018-Jul-19 17:30N 42°37' W 070°40'0 0.0
2018-Jul-19 17:00N 42°37' W 070°40'0 0.0
2018-Jul-19 16:30N 42°37' W 070°40'0 0.0
2018-Jul-19 16:00N 42°37' W 070°40'0 0.0
2018-Jul-19 15:30N 42°37' W 070°40'0 0.0
2018-Jul-19 15:00N 42°37' W 070°40'0 0.0
2018-Jul-19 14:00N 42°37' W 070°40'0 0.0
2018-Jul-19 13:30N 42°37' W 070°40'0 0.0
2018-Jul-19 13:00N 42°37' W 070°40'0 0.0
2018-Jul-19 12:30N 42°37' W 070°40'0 0.0
2018-Jul-19 12:00N 42°37' W 070°40'0 0.0
2018-Jul-19 11:30N 42°37' W 070°40'0 0.0
2018-Jul-19 11:00N 42°37' W 070°40'0 0.0
2018-Jul-19 10:30N 42°37' W 070°40'0 0.0
2018-Jul-19 10:00N 42°37' W 070°40'0 0.0
2018-Jul-19 09:30N 42°37' W 070°40'0 0.0
2018-Jul-19 09:00N 42°37' W 070°40'0 0.0
2018-Jul-19 08:30N 42°37' W 070°40'0 0.0
2018-Jul-19 08:00N 42°37' W 070°40'0 0.0
2018-Jul-19 07:30N 42°37' W 070°40'0 0.0
2018-Jul-19 07:00N 42°37' W 070°40'0 0.0
2018-Jul-19 06:30N 42°37' W 070°40'0 0.0
2018-Jul-19 06:00N 42°37' W 070°40'0 0.0
2018-Jul-19 05:30N 42°37' W 070°40'0 0.0
2018-Jul-19 05:00N 42°37' W 070°40'0 0.0
2018-Jul-19 04:30N 42°37' W 070°40'0 0.0
2018-Jul-19 04:00N 42°37' W 070°40'0 0.0
2018-Jul-19 03:30N 42°37' W 070°40'0 0.0
2018-Jul-19 03:00N 42°37' W 070°40'0 0.0
2018-Jul-19 02:30N 42°37' W 070°40'0 0.0
2018-Jul-19 02:00N 42°37' W 070°40'0 0.0
2018-Jul-19 01:30N 42°37' W 070°40'0 0.0
2018-Jul-19 01:00N 42°37' W 070°40'0 0.0
2018-Jul-19 00:30N 42°37' W 070°40'0 0.0
2018-Jul-19 00:00N 42°37' W 070°40'0 0.0
2018-Jul-18 23:30N 42°37' W 070°40'0 0.0
2018-Jul-18 23:00N 42°37' W 070°40'0 0.0
2018-Jul-18 22:30N 42°37' W 070°40'0 0.0
2018-Jul-18 22:00N 42°37' W 070°40'0 0.0
2018-Jul-18 21:30N 42°37' W 070°40'0 0.0
2018-Jul-18 21:00N 42°37' W 070°40'0 0.0
2018-Jul-18 20:30N 42°37' W 070°40'0 0.0
2018-Jul-18 20:00N 42°37' W 070°40'0 0.0
2018-Jul-18 19:30N 42°37' W 070°40'0 0.0
2018-Jul-18 19:00N 42°37' W 070°40'0 0.0
2018-Jul-18 18:30N 42°37' W 070°40'0 0.0
2018-Jul-18 18:00N 42°37' W 070°40'0 0.0
2018-Jul-18 17:30N 42°37' W 070°40'0 0.0
2018-Jul-18 17:00N 42°37' W 070°40'0 0.0
2018-Jul-18 16:30N 42°37' W 070°40'0 0.0
2018-Jul-18 15:57N 42°37' W 070°40'0 0.0
2018-Jul-18 15:30N 42°37' W 070°40'0 0.0
2018-Jul-18 15:00N 42°37' W 070°40'1 1.2
2018-Jul-18 14:30N 42°37' W 070°39'0 0.2
2018-Jul-18 13:30N 42°37' W 070°39'0 0.6
2018-Jul-18 13:00N 42°37' W 070°39'0 0.0
2018-Jul-18 12:30N 42°37' W 070°39'0 0.0
2018-Jul-18 12:00N 42°37' W 070°39'0 0.0
2018-Jul-18 11:30N 42°37' W 070°39'0 0.0
2018-Jul-18 10:30N 42°37' W 070°39'0 0.0
2018-Jul-18 10:00N 42°37' W 070°39'0 0.0
2018-Jul-18 09:30N 42°37' W 070°39'0 0.0
2018-Jul-18 09:00N 42°37' W 070°39'0 0.0
2018-Jul-18 08:30N 42°37' W 070°39'0 0.0
2018-Jul-18 08:00N 42°37' W 070°39'0 0.0
2018-Jul-18 07:30N 42°37' W 070°39'0 0.0
2018-Jul-18 07:00N 42°37' W 070°39'0 0.0
2018-Jul-18 06:30N 42°37' W 070°39'0 0.0
2018-Jul-18 06:00N 42°37' W 070°39'0 0.0
2018-Jul-18 05:30N 42°37' W 070°39'0 0.0
2018-Jul-18 05:00N 42°37' W 070°39'0 0.0
2018-Jul-18 04:30N 42°37' W 070°39'0 0.0
2018-Jul-18 04:00N 42°37' W 070°39'0 0.0
2018-Jul-18 03:30N 42°37' W 070°39'0 0.0
2018-Jul-18 03:00N 42°37' W 070°39'0 0.0
2018-Jul-18 02:30N 42°37' W 070°39'0 0.0
2018-Jul-18 02:00N 42°37' W 070°39'0 0.0
2018-Jul-18 01:30N 42°37' W 070°39'0 0.0
2018-Jul-18 01:00N 42°37' W 070°39'0 0.0
2018-Jul-18 00:30N 42°37' W 070°39'0 0.0
2018-Jul-18 00:00N 42°37' W 070°39'0 0.0
2018-Jul-17 23:30N 42°37' W 070°39'0 0.4
2018-Jul-17 23:00N 42°37' W 070°39'3 6.1
2018-Jul-17 22:30N 42°34' W 070°37'612.2
2018-Jul-17 22:00N 42°36' W 070°29'612.3
2018-Jul-17 21:30N 42°37' W 070°21'45 3.0
2018-Jul-17 06:40N 42°48' W 069°22'511.3
2018-Jul-17 06:12N 42°47' W 069°29'311.6
2018-Jul-17 05:55N 42°46' W 069°34'611.5
2018-Jul-17 05:25N 42°45' W 069°41'711.1
2018-Jul-17 04:49N 42°43' W 069°50'511.1
2018-Jul-17 04:25N 42°42' W 069°56'511.1
2018-Jul-17 04:00N 42°41' W 070°02'511.0
2018-Jul-17 03:30N 42°40' W 070°09'510.7
2018-Jul-17 03:00N 42°38' W 070°16'611.1
2018-Jul-17 02:30N 42°37' W 070°24'611.3
2018-Jul-17 02:00N 42°36' W 070°31'510.8
2018-Jul-17 01:30N 42°34' W 070°38'3 5.5
2018-Jul-17 01:00N 42°37' W 070°39'0 0.0
2018-Jul-17 00:30N 42°37' W 070°39'0 0.0
2018-Jul-16 23:30N 42°37' W 070°39'0 0.0
2018-Jul-16 23:00N 42°37' W 070°39'3 5.3
2018-Jul-16 22:30N 42°35' W 070°41'611.5
2018-Jul-16 22:00N 42°30' W 070°36'612.5
2018-Jul-16 21:30N 42°26' W 070°31'22 1.3
2018-Jul-16 04:41N 42°11' W 070°08'211.2
2018-Jul-16 04:31N 42°12' W 070°10'611.0
2018-Jul-16 04:01N 42°16' W 070°16'610.4
2018-Jul-16 03:25N 42°21' W 070°21'511.0
2018-Jul-16 03:00N 42°24' W 070°26'611.3
2018-Jul-16 02:31N 42°27' W 070°31'611.1
2018-Jul-16 02:01N 42°31' W 070°37'510.0
2018-Jul-16 01:30N 42°35' W 070°41'2 4.0
2018-Jul-16 01:01N 42°37' W 070°39'0 0.3
2018-Jul-16 00:31N 42°37' W 070°39'0 0.0
2018-Jul-16 00:01N 42°37' W 070°39'0 0.0
2018-Jul-15 23:30N 42°37' W 070°39'0 0.0
2018-Jul-15 23:01N 42°37' W 070°39'0 0.3
2018-Jul-15 22:30N 42°37' W 070°39'0 0.3
2018-Jul-15 22:01N 42°37' W 070°39'1 3.0
2018-Jul-15 21:31N 42°36' W 070°40'4 8.6
2018-Jul-15 21:00N 42°34' W 070°35'2 4.7
2018-Jul-15 20:31N 42°34' W 070°32'0 0.4
2018-Jul-15 20:00N 42°34' W 070°32'0 1.0
2018-Jul-15 19:30N 42°34' W 070°32'0 0.3
2018-Jul-15 19:01N 42°34' W 070°32'0 0.2
2018-Jul-15 18:30N 42°34' W 070°32'4 7.4
2018-Jul-15 18:00N 42°34' W 070°37'3 6.0
2018-Jul-15 17:31N 42°37' W 070°39'0 0.0
2018-Jul-15 17:01N 42°37' W 070°39'3 5.0
2018-Jul-15 16:30N 42°34' W 070°39'612.5
2018-Jul-15 16:00N 42°34' W 070°31'510.2
2018-Jul-15 15:30N 42°33' W 070°24'0 0.5
2018-Jul-15 15:00N 42°33' W 070°24'0 0.1
2018-Jul-15 14:30N 42°33' W 070°24'1 2.3
2018-Jul-15 14:00N 42°32' W 070°25'0 0.2
2018-Jul-15 13:30N 42°32' W 070°25'4 7.1
2018-Jul-15 13:00N 42°33' W 070°30'611.6
2018-Jul-15 12:30N 42°34' W 070°38'3 5.8
2018-Jul-15 12:00N 42°37' W 070°39'0 0.0
2018-Jul-15 11:30N 42°37' W 070°39'1 1.3
2018-Jul-15 11:00N 42°37' W 070°40'0 0.0
2018-Jul-15 10:30N 42°37' W 070°40'0 0.0
2018-Jul-15 10:00N 42°37' W 070°40'0 0.0
2018-Jul-15 09:30N 42°37' W 070°40'0 0.0
2018-Jul-15 09:00N 42°37' W 070°40'0 0.0
2018-Jul-15 08:30N 42°37' W 070°40'0 0.0
2018-Jul-15 08:00N 42°37' W 070°40'0 0.0
2018-Jul-15 07:30N 42°37' W 070°40'0 0.0
2018-Jul-15 07:00N 42°37' W 070°40'0 0.0
2018-Jul-15 06:30N 42°37' W 070°40'0 0.0
2018-Jul-15 06:00N 42°37' W 070°40'0 0.0
2018-Jul-15 05:30N 42°37' W 070°40'0 0.0
2018-Jul-15 05:00N 42°37' W 070°40'0 0.0
2018-Jul-15 04:30N 42°37' W 070°40'0 0.0
2018-Jul-15 04:00N 42°37' W 070°40'0 0.0
2018-Jul-15 03:30N 42°37' W 070°40'0 0.0
2018-Jul-15 03:00N 42°37' W 070°40'0 0.0
2018-Jul-15 02:30N 42°37' W 070°40'0 0.0
2018-Jul-15 02:00N 42°37' W 070°40'0 0.0
2018-Jul-15 01:30N 42°37' W 070°40'0 0.0
2018-Jul-15 01:00N 42°37' W 070°40'0 0.0
2018-Jul-15 00:30N 42°37' W 070°40'0 0.0
2018-Jul-15 00:00N 42°37' W 070°40'0 0.0
2018-Jul-14 23:30N 42°37' W 070°40'0 0.0
2018-Jul-14 23:00N 42°37' W 070°40'0 0.3
2018-Jul-14 22:30N 42°37' W 070°40'1 1.1
2018-Jul-14 21:58N 42°37' W 070°39'3 6.2
2018-Jul-14 21:30N 42°34' W 070°38'612.0
2018-Jul-14 21:00N 42°34' W 070°30'4 7.8
2018-Jul-14 20:30N 42°33' W 070°25'0 0.0
2018-Jul-14 20:00N 42°33' W 070°25'0 0.0
2018-Jul-14 19:30N 42°33' W 070°25'0 0.2
2018-Jul-14 19:00N 42°33' W 070°25'4 7.4
2018-Jul-14 18:30N 42°33' W 070°30'612.4
2018-Jul-14 18:00N 42°34' W 070°38'3 6.0
2018-Jul-14 17:30N 42°37' W 070°39'0 0.0
2018-Jul-14 17:00N 42°37' W 070°39'0 0.0
2018-Jul-14 16:30N 42°37' W 070°39'3 5.7
2018-Jul-14 16:00N 42°34' W 070°38'612.5
2018-Jul-14 15:30N 42°33' W 070°30'4 7.1
2018-Jul-14 15:00N 42°33' W 070°25'0 0.0
2018-Jul-14 14:00N 42°33' W 070°25'0 0.0
2018-Jul-14 13:30N 42°33' W 070°25'4 8.5
2018-Jul-14 13:00N 42°33' W 070°31'612.0
2018-Jul-14 12:30N 42°34' W 070°39'3 5.5
2018-Jul-14 12:00N 42°37' W 070°39'0 0.0
2018-Jul-14 11:30N 42°37' W 070°39'1 1.3
2018-Jul-14 11:00N 42°37' W 070°40'0 0.0
2018-Jul-14 10:30N 42°37' W 070°40'0 0.0
2018-Jul-14 10:00N 42°37' W 070°40'0 0.0
2018-Jul-14 09:30N 42°37' W 070°40'0 0.0
2018-Jul-14 09:00N 42°37' W 070°40'0 0.0
2018-Jul-14 08:30N 42°37' W 070°40'0 0.0
2018-Jul-14 07:59N 42°37' W 070°40'0 0.0
2018-Jul-14 07:30N 42°37' W 070°40'0 0.0
2018-Jul-14 07:00N 42°37' W 070°40'0 0.0
2018-Jul-14 06:30N 42°37' W 070°40'0 0.0
2018-Jul-14 06:00N 42°37' W 070°40'0 0.0
2018-Jul-14 05:30N 42°37' W 070°40'0 0.0
2018-Jul-14 05:00N 42°37' W 070°40'0 0.0
2018-Jul-14 04:30N 42°37' W 070°40'0 0.0
2018-Jul-14 04:00N 42°37' W 070°40'0 0.0
2018-Jul-14 03:30N 42°37' W 070°40'0 0.0
2018-Jul-14 03:00N 42°37' W 070°40'0 0.0
2018-Jul-14 02:30N 42°37' W 070°40'0 0.0
2018-Jul-14 02:00N 42°37' W 070°40'0 0.0
2018-Jul-14 01:30N 42°37' W 070°40'0 0.0
2018-Jul-14 01:00N 42°37' W 070°40'0 0.0
2018-Jul-14 00:30N 42°37' W 070°40'0 0.0
2018-Jul-14 00:00N 42°37' W 070°40'0 0.0
2018-Jul-13 23:30N 42°37' W 070°40'0 0.0
2018-Jul-13 23:00N 42°37' W 070°40'0 0.0
2018-Jul-13 22:30N 42°37' W 070°40'1 1.3
2018-Jul-13 22:00N 42°37' W 070°39'3 6.0
2018-Jul-13 21:30N 42°34' W 070°40'510.9
2018-Jul-13 21:00N 42°31' W 070°33'5 9.0
2018-Jul-13 20:30N 42°29' W 070°28'0 0.0
2018-Jul-13 20:00N 42°29' W 070°28'0 0.3
2018-Jul-13 19:30N 42°29' W 070°28'0 0.5
2018-Jul-13 19:00N 42°30' W 070°28'2 4.7
2018-Jul-13 18:30N 42°30' W 070°31'611.9
2018-Jul-13 18:00N 42°34' W 070°38'4 7.0
2018-Jul-13 17:30N 42°37' W 070°39'0 0.0
2018-Jul-13 17:00N 42°37' W 070°39'1 1.3
2018-Jul-13 16:30N 42°37' W 070°40'0 0.3
2018-Jul-13 16:00N 42°37' W 070°40'0 0.0
2018-Jul-13 15:30N 42°37' W 070°40'0 0.0
2018-Jul-13 15:00N 42°37' W 070°40'0 0.0
2018-Jul-13 14:00N 42°37' W 070°40'0 0.0
2018-Jul-13 13:30N 42°37' W 070°40'0 0.0
2018-Jul-13 13:00N 42°37' W 070°40'0 0.0
2018-Jul-13 12:30N 42°37' W 070°40'0 0.0
2018-Jul-13 12:00N 42°37' W 070°40'0 0.0
2018-Jul-13 11:30N 42°37' W 070°40'0 0.0
2018-Jul-13 11:00N 42°37' W 070°40'0 0.0
2018-Jul-13 10:30N 42°37' W 070°40'0 0.0
2018-Jul-13 10:00N 42°37' W 070°40'0 0.0
2018-Jul-13 09:30N 42°37' W 070°40'0 0.0
2018-Jul-13 09:00N 42°37' W 070°40'0 0.0
2018-Jul-13 08:30N 42°37' W 070°40'0 0.0
2018-Jul-13 08:00N 42°37' W 070°40'0 0.0
2018-Jul-13 07:30N 42°37' W 070°40'0 0.0
2018-Jul-13 07:00N 42°37' W 070°40'0 0.0
2018-Jul-13 06:30N 42°37' W 070°40'0 0.0
2018-Jul-13 06:00N 42°37' W 070°40'0 0.0
2018-Jul-13 05:30N 42°37' W 070°40'0 0.0
2018-Jul-13 05:00N 42°37' W 070°40'0 0.0
2018-Jul-13 04:30N 42°37' W 070°40'  

Dump ship's entire track history